createdAt,value
2019-03-30T00:00:19.121Z,91.62
2019-03-30T00:01:19.059Z,90.28
2019-03-30T00:02:19.086Z,90.28
2019-03-30T00:03:19.148Z,90.18
2019-03-30T00:04:19.046Z,90.49
2019-03-30T00:05:19.320Z,90.08
2019-03-30T00:06:20.010Z,89.77
2019-03-30T00:07:19.078Z,89.97
2019-03-30T00:08:18.999Z,90.49
2019-03-30T00:09:19.110Z,90.69
2019-03-30T00:10:18.961Z,90.69
2019-03-30T00:11:19.115Z,90.80
2019-03-30T00:12:19.014Z,90.18
2019-03-30T00:13:18.948Z,90.18
2019-03-30T00:14:18.972Z,89.67
2019-03-30T00:15:19.055Z,89.71
2019-03-30T00:16:19.033Z,89.71
2019-03-30T00:17:18.953Z,90.12
2019-03-30T00:18:18.937Z,91.30
2019-03-30T00:19:18.905Z,91.50
2019-03-30T00:20:19.076Z,91.91
2019-03-30T00:21:18.870Z,91.91
2019-03-30T00:22:18.982Z,91.30
2019-03-30T00:23:18.827Z,90.99
2019-03-30T00:24:18.892Z,91.40
2019-03-30T00:25:18.909Z,92.02
2019-03-30T00:26:18.905Z,92.22
2019-03-30T00:27:18.827Z,92.33
2019-03-30T00:28:18.971Z,92.53
2019-03-30T00:29:18.796Z,92.22
2019-03-30T00:30:19.925Z,92.12
2019-03-30T00:31:18.752Z,92.43
2019-03-30T00:32:18.844Z,92.33
2019-03-30T00:33:18.720Z,91.91
2019-03-30T00:34:18.863Z,92.02
2019-03-30T00:35:18.922Z,91.91
2019-03-30T00:36:18.740Z,91.91
2019-03-30T00:37:18.866Z,91.60
2019-03-30T00:38:18.667Z,91.77
2019-03-30T00:39:18.713Z,91.50
2019-03-30T00:40:18.742Z,91.60
2019-03-30T00:41:18.643Z,91.60
2019-03-30T00:42:18.811Z,91.77
2019-03-30T00:43:18.658Z,92.08
2019-03-30T00:44:19.670Z,91.56
2019-03-30T00:45:18.714Z,91.05
2019-03-30T00:46:18.597Z,91.05
2019-03-30T00:47:18.622Z,90.94
2019-03-30T00:48:18.702Z,90.84
2019-03-30T00:49:18.588Z,90.73
2019-03-30T00:50:18.808Z,90.78
2019-03-30T00:51:18.548Z,90.88
2019-03-30T00:52:18.541Z,91.40
2019-03-30T00:53:18.589Z,90.78
2019-03-30T00:54:18.498Z,91.30
2019-03-30T00:55:18.592Z,90.73
2019-03-30T00:56:18.502Z,91.30
2019-03-30T00:57:18.565Z,90.64
2019-03-30T00:58:18.459Z,90.43
2019-03-30T00:59:18.576Z,90.73
2019-03-30T01:00:18.526Z,90.64
2019-03-30T01:01:18.456Z,90.43
2019-03-30T01:02:18.477Z,90.22
2019-03-30T01:03:18.439Z,90.26
2019-03-30T01:04:18.400Z,90.16
2019-03-30T01:05:18.612Z,90.47
2019-03-30T01:06:18.387Z,90.47
2019-03-30T01:07:18.474Z,90.57
2019-03-30T01:08:18.367Z,90.47
2019-03-30T01:09:18.343Z,90.37
2019-03-30T01:10:18.372Z,90.88
2019-03-30T01:11:18.536Z,91.03
2019-03-30T01:12:18.360Z,91.85
2019-03-30T01:13:19.455Z,91.54
2019-03-30T01:14:18.309Z,91.64
2019-03-30T01:15:18.491Z,92.27
2019-03-30T01:16:18.304Z,91.85
2019-03-30T01:17:18.344Z,92.57
2019-03-30T01:18:18.274Z,92.41
2019-03-30T01:19:18.270Z,92.37
2019-03-30T01:20:18.276Z,92.51
2019-03-30T01:21:18.340Z,92.37
2019-03-30T01:22:18.219Z,92.37
2019-03-30T01:23:18.361Z,92.37
2019-03-30T01:24:18.199Z,92.21
2019-03-30T01:25:18.354Z,92.10
2019-03-30T01:26:18.220Z,92.21
2019-03-30T01:27:19.316Z,92.61
2019-03-30T01:28:18.265Z,92.93
2019-03-30T01:29:18.367Z,93.24
2019-03-30T01:30:23.459Z,93.54
2019-03-30T01:31:19.119Z,93.09
2019-03-30T01:32:18.116Z,93.09
2019-03-30T01:33:18.258Z,92.06
2019-03-30T01:34:18.121Z,92.31
2019-03-30T01:35:18.305Z,92.41
2019-03-30T01:36:18.080Z,92.51
2019-03-30T01:37:18.067Z,92.47
2019-03-30T01:38:18.093Z,92.31
2019-03-30T01:39:18.022Z,92.72
2019-03-30T01:40:18.226Z,92.51
2019-03-30T01:41:18.024Z,92.31
2019-03-30T01:42:18.105Z,92.35
2019-03-30T01:43:18.030Z,92.61
2019-03-30T01:44:18.153Z,92.66
2019-03-30T01:45:18.073Z,92.97
2019-03-30T01:46:18.063Z,92.76
2019-03-30T01:47:18.050Z,93.49
2019-03-30T01:48:17.934Z,93.49
2019-03-30T01:49:17.971Z,93.07
2019-03-30T01:50:18.270Z,93.38
2019-03-30T01:51:17.962Z,93.90
2019-03-30T01:52:18.046Z,94.10
2019-03-30T01:53:17.924Z,93.59
2019-03-30T01:54:17.893Z,93.44
2019-03-30T01:55:18.064Z,94.21
2019-03-30T01:56:17.902Z,93.34
2019-03-30T01:57:17.985Z,93.44
2019-03-30T01:58:17.846Z,93.59
2019-03-30T01:59:17.824Z,92.76
2019-03-30T02:00:17.838Z,93.38
2019-03-30T02:01:18.947Z,93.59
2019-03-30T02:02:17.857Z,93.49
2019-03-30T02:03:17.905Z,94.00
2019-03-30T02:04:17.783Z,93.90
2019-03-30T02:05:17.797Z,93.90
2019-03-30T02:06:17.938Z,93.59
2019-03-30T02:07:17.771Z,93.49
2019-03-30T02:08:17.844Z,93.69
2019-03-30T02:09:17.756Z,93.38
2019-03-30T02:10:17.803Z,93.49
2019-03-30T02:11:17.706Z,93.59
2019-03-30T02:12:17.831Z,93.44
2019-03-30T02:13:17.675Z,93.54
2019-03-30T02:14:17.799Z,93.07
2019-03-30T02:15:17.682Z,93.49
2019-03-30T02:16:17.665Z,92.97
2019-03-30T02:17:20.162Z,93.38
2019-03-30T02:18:17.715Z,94.10
2019-03-30T02:19:17.680Z,93.59
2019-03-30T02:20:30.365Z,93.44
2019-03-30T02:21:18.589Z,93.24
2019-03-30T02:22:17.636Z,93.44
2019-03-30T02:23:17.609Z,93.03
2019-03-30T02:24:17.663Z,93.03
2019-03-30T02:25:17.584Z,92.93
2019-03-30T02:26:17.668Z,92.57
2019-03-30T02:27:17.551Z,92.06
2019-03-30T02:28:17.550Z,91.85
2019-03-30T02:29:17.662Z,91.64
2019-03-30T02:30:17.518Z,91.34
2019-03-30T02:31:17.595Z,91.44
2019-03-30T02:32:17.506Z,91.96
2019-03-30T02:33:17.792Z,90.82
2019-03-30T02:34:17.642Z,91.54
2019-03-30T02:35:17.467Z,91.54
2019-03-30T02:36:17.652Z,91.75
2019-03-30T02:37:17.431Z,92.06
2019-03-30T02:38:17.672Z,91.75
2019-03-30T02:39:17.573Z,91.34
2019-03-30T02:40:17.397Z,91.34
2019-03-30T02:41:17.605Z,91.54
2019-03-30T02:42:17.379Z,91.69
2019-03-30T02:43:17.568Z,91.48
2019-03-30T02:44:17.361Z,91.58
2019-03-30T02:45:17.350Z,91.79
2019-03-30T02:46:17.521Z,92.06
2019-03-30T02:47:17.342Z,92.21
2019-03-30T02:48:17.483Z,92.00
2019-03-30T02:49:17.302Z,91.79
2019-03-30T02:50:17.318Z,92.31
2019-03-30T02:51:17.293Z,92.16
2019-03-30T02:52:17.566Z,91.64
2019-03-30T02:53:17.316Z,91.58
2019-03-30T02:54:17.369Z,91.75
2019-03-30T02:55:17.249Z,91.54
2019-03-30T02:56:17.242Z,90.92
2019-03-30T02:57:18.546Z,90.51
2019-03-30T02:58:17.274Z,90.92
2019-03-30T02:59:17.411Z,90.61
2019-03-30T03:00:17.256Z,90.31
2019-03-30T03:01:17.253Z,90.47
2019-03-30T03:02:17.258Z,90.31
2019-03-30T03:03:17.475Z,90.06
2019-03-30T03:04:17.197Z,90.31
2019-03-30T03:05:17.384Z,90.20
2019-03-30T03:06:17.224Z,90.10
2019-03-30T03:07:17.137Z,90.10
2019-03-30T03:08:17.206Z,90.31
2019-03-30T03:09:17.273Z,90.41
2019-03-30T03:10:17.106Z,90.41
2019-03-30T03:11:17.089Z,90.20
2019-03-30T03:12:17.104Z,90.26
2019-03-30T03:13:17.116Z,90.06
2019-03-30T03:14:17.065Z,90.06
2019-03-30T03:15:17.234Z,89.95
2019-03-30T03:16:17.041Z,89.89
2019-03-30T03:17:17.032Z,90.10
2019-03-30T03:18:17.015Z,90.10
2019-03-30T03:19:17.174Z,89.69
2019-03-30T03:20:17.094Z,89.79
2019-03-30T03:21:16.991Z,90.00
2019-03-30T03:22:17.153Z,89.79
2019-03-30T03:23:16.972Z,90.10
2019-03-30T03:24:18.169Z,90.82
2019-03-30T03:25:16.982Z,90.41
2019-03-30T03:26:16.986Z,90.61
2019-03-30T03:27:16.918Z,90.41
2019-03-30T03:28:17.135Z,90.10
2019-03-30T03:29:16.932Z,89.79
2019-03-30T03:30:16.898Z,90.10
2019-03-30T03:31:16.918Z,89.89
2019-03-30T03:32:16.976Z,90.10
2019-03-30T03:33:16.968Z,90.00
2019-03-30T03:34:17.141Z,89.89
2019-03-30T03:35:16.882Z,89.79
2019-03-30T03:36:16.841Z,89.17
2019-03-30T03:37:16.825Z,89.28
2019-03-30T03:38:17.012Z,89.58
2019-03-30T03:39:16.813Z,89.48
2019-03-30T03:40:16.895Z,89.58
2019-03-30T03:41:16.795Z,90.14
2019-03-30T03:42:16.783Z,90.31
2019-03-30T03:43:16.906Z,90.10
2019-03-30T03:44:16.891Z,90.14
2019-03-30T03:45:16.763Z,90.00
2019-03-30T03:46:16.901Z,90.10
2019-03-30T03:47:16.715Z,89.83
2019-03-30T03:48:16.738Z,90.00
2019-03-30T03:49:16.834Z,89.73
2019-03-30T03:50:16.681Z,90.04
2019-03-30T03:51:26.337Z,90.04
2019-03-30T03:52:17.908Z,90.14
2019-03-30T03:53:16.960Z,90.25
2019-03-30T03:54:16.660Z,90.14
2019-03-30T03:55:16.931Z,89.79
2019-03-30T03:56:16.617Z,90.25
2019-03-30T03:57:45.255Z,89.79
2019-03-30T03:58:16.591Z,89.89
2019-03-30T03:59:16.612Z,90.20
2019-03-30T04:00:16.601Z,89.58
2019-03-30T04:01:18.751Z,89.48
2019-03-30T04:02:16.549Z,89.52
2019-03-30T04:03:18.704Z,89.58
2019-03-30T04:04:16.570Z,89.58
2019-03-30T04:05:16.541Z,89.58
2019-03-30T04:06:16.542Z,89.48
2019-03-30T04:07:16.541Z,89.83
2019-03-30T04:08:16.496Z,89.69
2019-03-30T04:09:16.747Z,89.58
2019-03-30T04:10:16.471Z,89.58
2019-03-30T04:11:16.479Z,89.48
2019-03-30T04:12:16.581Z,89.58
2019-03-30T04:13:16.439Z,88.76
2019-03-30T04:14:17.131Z,88.76
2019-03-30T04:15:16.421Z,88.76
2019-03-30T04:16:16.606Z,89.01
2019-03-30T04:17:16.420Z,89.58
2019-03-30T04:18:16.548Z,89.62
2019-03-30T04:19:16.420Z,89.48
2019-03-30T04:20:16.542Z,89.38
2019-03-30T04:21:16.355Z,89.62
2019-03-30T04:22:16.337Z,89.73
2019-03-30T04:23:16.332Z,88.90
2019-03-30T04:24:16.561Z,88.56
2019-03-30T04:25:16.315Z,88.59
2019-03-30T04:26:16.513Z,88.59
2019-03-30T04:27:16.290Z,88.90
2019-03-30T04:28:16.323Z,89.28
2019-03-30T04:29:16.467Z,89.32
2019-03-30T04:30:16.286Z,89.73
2019-03-30T04:31:16.431Z,89.69
2019-03-30T04:32:16.235Z,89.01
2019-03-30T04:33:16.278Z,88.90
2019-03-30T04:34:16.221Z,88.59
2019-03-30T04:35:16.260Z,88.35
2019-03-30T04:36:16.218Z,88.59
2019-03-30T04:37:16.379Z,88.29
2019-03-30T04:38:16.291Z,88.35
2019-03-30T04:39:16.291Z,88.29
2019-03-30T04:40:16.152Z,88.80
2019-03-30T04:41:16.209Z,88.65
2019-03-30T04:42:16.252Z,89.01
2019-03-30T04:43:16.289Z,88.59
2019-03-30T04:44:16.136Z,88.59
2019-03-30T04:45:16.106Z,88.59
2019-03-30T04:46:16.114Z,88.43
2019-03-30T04:47:16.156Z,88.74
2019-03-30T04:48:16.127Z,89.05
2019-03-30T04:49:16.228Z,90.22
2019-03-30T04:50:16.091Z,90.26
2019-03-30T04:51:16.058Z,90.43
2019-03-30T04:52:16.072Z,90.58
2019-03-30T04:53:16.131Z,90.89
2019-03-30T04:54:16.028Z,91.61
2019-03-30T04:55:16.106Z,91.71
2019-03-30T04:56:16.097Z,91.16
2019-03-30T04:57:16.067Z,91.09
2019-03-30T04:58:16.003Z,90.95
2019-03-30T04:59:17.055Z,91.82
2019-03-30T05:00:16.116Z,90.95
2019-03-30T05:01:16.040Z,90.70
2019-03-30T05:02:15.941Z,90.70
2019-03-30T05:03:15.938Z,90.28
2019-03-30T05:04:16.059Z,90.08
2019-03-30T05:05:15.931Z,90.08
2019-03-30T05:06:15.969Z,90.08
2019-03-30T05:07:16.255Z,89.98
2019-03-30T05:08:16.711Z,89.56
2019-03-30T05:09:15.868Z,89.67
2019-03-30T05:10:15.864Z,90.08
2019-03-30T05:11:15.856Z,89.98
2019-03-30T05:12:15.945Z,90.33
2019-03-30T05:13:15.851Z,90.08
2019-03-30T05:14:15.921Z,89.36
2019-03-30T05:15:15.818Z,89.87
2019-03-30T05:16:15.832Z,90.08
2019-03-30T05:17:15.822Z,89.98
2019-03-30T05:18:18.687Z,89.36
2019-03-30T05:19:16.336Z,89.56
2019-03-30T05:20:16.107Z,89.77
2019-03-30T05:21:15.733Z,88.95
2019-03-30T05:22:16.715Z,88.70
2019-03-30T05:23:15.756Z,88.70
2019-03-30T05:24:15.796Z,88.49
2019-03-30T05:25:15.720Z,88.59
2019-03-30T05:26:15.802Z,88.59
2019-03-30T05:27:15.835Z,88.49
2019-03-30T05:28:15.809Z,88.59
2019-03-30T05:29:15.781Z,88.64
2019-03-30T05:30:15.711Z,88.64
2019-03-30T05:31:15.760Z,88.32
2019-03-30T05:32:15.664Z,88.74
2019-03-30T05:33:15.750Z,87.98
2019-03-30T05:34:15.604Z,88.29
2019-03-30T05:35:15.720Z,87.56
2019-03-30T05:36:15.592Z,88.08
2019-03-30T05:37:15.577Z,87.77
2019-03-30T05:38:15.576Z,87.46
2019-03-30T05:39:15.706Z,87.56
2019-03-30T05:40:15.576Z,87.77
2019-03-30T05:41:15.845Z,87.73
2019-03-30T05:42:15.576Z,87.21
2019-03-30T05:43:15.514Z,86.80
2019-03-30T05:44:15.534Z,86.70
2019-03-30T05:45:16.663Z,85.87
2019-03-30T05:46:15.499Z,86.18
2019-03-30T05:47:15.542Z,86.39
2019-03-30T05:48:15.460Z,86.29
2019-03-30T05:49:15.509Z,86.32
2019-03-30T05:50:15.486Z,86.53
2019-03-30T05:51:15.566Z,86.53
2019-03-30T05:52:25.799Z,88.18
2019-03-30T05:53:16.438Z,87.87
2019-03-30T05:54:15.481Z,87.83
2019-03-30T05:55:15.414Z,87.52
2019-03-30T05:56:15.495Z,87.42
2019-03-30T05:57:15.386Z,86.70
2019-03-30T05:58:15.431Z,86.70
2019-03-30T05:59:15.387Z,86.04
2019-03-30T06:00:15.497Z,86.29
2019-03-30T06:01:15.354Z,85.73
2019-03-30T06:02:17.419Z,85.63
2019-03-30T06:03:15.306Z,85.52
2019-03-30T06:04:15.340Z,85.83
2019-03-30T06:05:15.364Z,85.52
2019-03-30T06:06:15.365Z,85.22
2019-03-30T06:07:15.259Z,84.45
2019-03-30T06:08:15.479Z,84.87
2019-03-30T06:09:15.255Z,84.66
2019-03-30T06:10:15.334Z,84.52
2019-03-30T06:11:15.207Z,84.11
2019-03-30T06:12:15.223Z,83.90
2019-03-30T06:13:15.178Z,83.59
2019-03-30T06:14:15.322Z,83.70
2019-03-30T06:15:15.228Z,83.90
2019-03-30T06:16:15.276Z,83.59
2019-03-30T06:17:15.160Z,83.39
2019-03-30T06:18:15.197Z,83.14
2019-03-30T06:19:15.133Z,82.83
2019-03-30T06:20:15.216Z,82.32
2019-03-30T06:21:15.154Z,82.93
2019-03-30T06:22:15.218Z,82.73
2019-03-30T06:23:15.238Z,82.42
2019-03-30T06:24:15.122Z,82.63
2019-03-30T06:25:15.077Z,82.53
2019-03-30T06:26:15.133Z,83.04
2019-03-30T06:27:15.059Z,82.90
2019-03-30T06:28:15.085Z,82.79
2019-03-30T06:29:15.051Z,82.90
2019-03-30T06:30:15.079Z,82.90
2019-03-30T06:31:15.175Z,82.39
2019-03-30T06:32:15.121Z,82.28
2019-03-30T06:33:15.017Z,82.28
2019-03-30T06:34:15.003Z,82.55
2019-03-30T06:35:15.087Z,82.14
2019-03-30T06:36:14.995Z,81.52
2019-03-30T06:37:15.056Z,81.01
2019-03-30T06:38:15.013Z,81.48
2019-03-30T06:39:14.978Z,80.77
2019-03-30T06:40:14.944Z,80.46
2019-03-30T06:41:15.068Z,81.28
2019-03-30T06:42:14.880Z,80.87
2019-03-30T06:43:15.043Z,80.25
2019-03-30T06:44:14.879Z,80.25
2019-03-30T06:45:14.899Z,80.32
2019-03-30T06:46:14.909Z,80.21
2019-03-30T06:47:14.824Z,80.52
2019-03-30T06:48:14.816Z,80.73
2019-03-30T06:49:14.918Z,80.21
2019-03-30T06:50:14.803Z,79.36
2019-03-30T06:51:14.920Z,79.05
2019-03-30T06:52:14.799Z,79.36
2019-03-30T06:53:14.830Z,80.58
2019-03-30T06:54:15.022Z,79.36
2019-03-30T06:55:15.908Z,78.64
2019-03-30T06:56:14.784Z,77.71
2019-03-30T06:57:15.817Z,77.81
2019-03-30T06:58:14.713Z,78.64
2019-03-30T06:59:14.724Z,77.92
2019-03-30T07:00:14.735Z,77.78
2019-03-30T07:01:14.754Z,78.74
2019-03-30T07:02:14.687Z,78.60
2019-03-30T07:03:14.724Z,77.78
2019-03-30T07:04:14.724Z,77.81
2019-03-30T07:05:14.639Z,78.60
2019-03-30T07:06:14.671Z,78.81
2019-03-30T07:07:15.684Z,78.81
2019-03-30T07:08:14.628Z,79.01
2019-03-30T07:09:14.678Z,79.11
2019-03-30T07:10:14.597Z,79.22
2019-03-30T07:11:21.070Z,78.91
2019-03-30T07:12:15.566Z,79.42
2019-03-30T07:13:14.686Z,78.70
2019-03-30T07:14:14.572Z,78.09
2019-03-30T07:15:14.607Z,77.95
2019-03-30T07:16:14.561Z,77.64
2019-03-30T07:17:14.523Z,78.25
2019-03-30T07:18:14.516Z,78.87
2019-03-30T07:19:14.607Z,77.84
2019-03-30T07:20:14.513Z,78.56
2019-03-30T07:21:14.592Z,78.16
2019-03-30T07:22:14.559Z,78.22
2019-03-30T07:23:14.455Z,77.81
2019-03-30T07:24:14.504Z,78.32
2019-03-30T07:25:14.631Z,77.81
2019-03-30T07:26:14.497Z,77.29
2019-03-30T07:27:14.516Z,77.20
2019-03-30T07:28:14.436Z,77.29
2019-03-30T07:29:14.384Z,76.58
2019-03-30T07:30:14.393Z,77.81
2019-03-30T07:31:14.901Z,77.61
2019-03-30T07:32:14.373Z,77.06
2019-03-30T07:33:14.426Z,77.26
2019-03-30T07:34:14.343Z,77.47
2019-03-30T07:35:14.322Z,76.85
2019-03-30T07:36:14.510Z,76.65
2019-03-30T07:37:14.325Z,76.34
2019-03-30T07:38:14.408Z,76.14
2019-03-30T07:39:14.309Z,76.85
2019-03-30T07:40:14.377Z,76.72
2019-03-30T07:41:14.341Z,75.18
2019-03-30T07:42:14.569Z,74.05
2019-03-30T07:43:15.893Z,73.95
2019-03-30T07:44:14.385Z,73.71
2019-03-30T07:45:14.305Z,73.91
2019-03-30T07:46:14.720Z,73.40
2019-03-30T07:47:14.277Z,73.71
2019-03-30T07:48:14.331Z,74.63
2019-03-30T07:49:14.180Z,72.55
2019-03-30T07:50:14.261Z,72.04
2019-03-30T07:51:14.235Z,71.32
2019-03-30T07:52:14.197Z,71.53
2019-03-30T07:53:25.523Z,72.86
2019-03-30T07:54:15.127Z,72.72
2019-03-30T07:55:14.291Z,72.21
2019-03-30T07:56:14.183Z,72.96
2019-03-30T07:57:17.266Z,73.16
2019-03-30T07:58:14.093Z,72.11
2019-03-30T07:59:20.848Z,72.52
2019-03-30T08:00:14.083Z,71.59
2019-03-30T08:01:14.129Z,71.80
2019-03-30T08:02:14.112Z,70.98
2019-03-30T08:03:15.174Z,71.39
2019-03-30T08:04:14.052Z,72.21
2019-03-30T08:05:14.133Z,72.62
2019-03-30T08:06:14.035Z,71.66
2019-03-30T08:07:14.221Z,70.67
2019-03-30T08:08:13.993Z,70.64
2019-03-30T08:09:13.973Z,69.93
2019-03-30T08:10:13.954Z,70.75
2019-03-30T08:11:15.100Z,69.42
2019-03-30T08:12:13.976Z,69.21
2019-03-30T08:13:14.146Z,69.72
2019-03-30T08:14:13.921Z,69.59
2019-03-30T08:15:13.943Z,68.97
2019-03-30T08:16:13.913Z,68.80
2019-03-30T08:17:14.420Z,70.30
2019-03-30T08:18:13.984Z,70.61
2019-03-30T08:19:15.070Z,69.28
2019-03-30T08:20:13.872Z,69.56
2019-03-30T08:21:13.855Z,70.57
2019-03-30T08:22:14.140Z,69.04
2019-03-30T08:23:13.831Z,68.84
2019-03-30T08:24:14.010Z,68.23
2019-03-30T08:25:15.079Z,69.04
2019-03-30T08:26:13.858Z,69.24
2019-03-30T08:27:13.828Z,68.19
2019-03-30T08:28:15.899Z,67.38
2019-03-30T08:29:14.140Z,68.70
2019-03-30T08:30:13.999Z,67.18
2019-03-30T08:31:13.975Z,66.25
2019-03-30T08:32:13.751Z,66.56
2019-03-30T08:33:13.729Z,66.56
2019-03-30T08:34:13.837Z,66.46
2019-03-30T08:35:13.775Z,66.36
2019-03-30T08:36:14.730Z,66.97
2019-03-30T08:37:13.694Z,65.81
2019-03-30T08:38:13.782Z,66.33
2019-03-30T08:39:13.682Z,66.83
2019-03-30T08:40:15.329Z,66.42
2019-03-30T08:41:13.638Z,66.74
2019-03-30T08:42:13.772Z,65.37
2019-03-30T08:43:13.606Z,65.48
2019-03-30T08:44:13.613Z,65.68
2019-03-30T08:45:13.736Z,64.87
2019-03-30T08:46:13.616Z,65.48
2019-03-30T08:47:13.723Z,66.30
2019-03-30T08:48:13.578Z,65.65
2019-03-30T08:49:13.660Z,65.25
2019-03-30T08:50:13.596Z,66.57
2019-03-30T08:51:13.696Z,65.55
2019-03-30T08:52:13.553Z,65.14
2019-03-30T08:53:13.691Z,64.32
2019-03-30T08:54:13.553Z,64.20
2019-03-30T08:55:13.636Z,63.92
2019-03-30T08:56:13.501Z,63.79
2019-03-30T08:57:13.684Z,64.60
2019-03-30T08:58:13.475Z,63.79
2019-03-30T08:59:13.648Z,63.48
2019-03-30T09:00:13.459Z,64.17
2019-03-30T09:01:13.563Z,64.17
2019-03-30T09:02:13.461Z,64.06
2019-03-30T09:03:14.587Z,65.19
2019-03-30T09:04:13.405Z,66.10
2019-03-30T09:05:13.624Z,66.68
2019-03-30T09:06:13.378Z,65.97
2019-03-30T09:07:13.830Z,63.24
2019-03-30T09:08:13.360Z,63.53
2019-03-30T09:09:13.419Z,62.71
2019-03-30T09:10:13.339Z,64.14
2019-03-30T09:11:13.573Z,67.39
2019-03-30T09:12:13.334Z,67.36
2019-03-30T09:13:14.369Z,66.04
2019-03-30T09:14:13.302Z,64.41
2019-03-30T09:15:13.375Z,62.07
2019-03-30T09:16:13.331Z,63.59
2019-03-30T09:17:13.330Z,62.48
2019-03-30T09:18:13.241Z,64.61
2019-03-30T09:19:13.305Z,64.20
2019-03-30T09:20:13.224Z,64.61
2019-03-30T09:21:13.385Z,63.59
2019-03-30T09:22:13.255Z,66.14
2019-03-30T09:23:13.331Z,65.12
2019-03-30T09:24:13.195Z,64.92
2019-03-30T09:25:13.226Z,62.68
2019-03-30T09:26:16.486Z,62.37
2019-03-30T09:27:13.511Z,64.58
2019-03-30T09:28:13.135Z,67.33
2019-03-30T09:29:14.235Z,67.13
2019-03-30T09:30:13.115Z,64.65
2019-03-30T09:31:13.258Z,63.54
2019-03-30T09:32:14.789Z,62.11
2019-03-30T09:33:13.200Z,61.40
2019-03-30T09:34:13.085Z,61.91
2019-03-30T09:35:13.093Z,62.21
2019-03-30T09:36:13.086Z,61.60
2019-03-30T09:37:13.133Z,61.71
2019-03-30T09:38:14.779Z,61.10
2019-03-30T09:39:13.160Z,61.81
2019-03-30T09:40:13.047Z,62.11
2019-03-30T09:41:13.047Z,60.79
2019-03-30T09:42:13.069Z,60.76
2019-03-30T09:43:12.980Z,61.68
2019-03-30T09:44:12.964Z,60.46
2019-03-30T09:45:13.055Z,61.78
2019-03-30T09:46:12.939Z,61.55
2019-03-30T09:47:13.123Z,60.83
2019-03-30T09:48:12.943Z,60.53
2019-03-30T09:49:12.960Z,60.33
2019-03-30T09:50:12.936Z,60.53
2019-03-30T09:51:13.045Z,61.65
2019-03-30T09:52:12.913Z,60.81
2019-03-30T09:53:12.943Z,58.80
2019-03-30T09:54:23.108Z,60.50
2019-03-30T09:55:13.853Z,60.30
2019-03-30T09:56:14.045Z,61.14
2019-03-30T09:57:12.936Z,61.62
2019-03-30T09:58:13.007Z,60.60
2019-03-30T09:59:12.841Z,62.63
2019-03-30T10:00:12.912Z,60.50
2019-03-30T10:01:13.000Z,61.59
2019-03-30T10:02:12.825Z,60.17
2019-03-30T10:03:12.926Z,59.97
2019-03-30T10:04:12.873Z,59.86
2019-03-30T10:05:12.792Z,58.95
2019-03-30T10:06:12.780Z,60.47
2019-03-30T10:07:12.788Z,59.97
2019-03-30T10:08:12.800Z,59.05
2019-03-30T10:09:12.728Z,60.68
2019-03-30T10:10:12.820Z,60.78
2019-03-30T10:11:12.683Z,60.47
2019-03-30T10:12:12.859Z,59.66
2019-03-30T10:13:12.708Z,61.16
2019-03-30T10:14:14.734Z,60.55
2019-03-30T10:15:12.649Z,59.43
2019-03-30T10:16:13.191Z,59.53
2019-03-30T10:17:12.719Z,58.72
2019-03-30T10:18:12.686Z,59.91
2019-03-30T10:19:12.645Z,57.17
2019-03-30T10:20:12.686Z,57.37
2019-03-30T10:21:12.600Z,57.50
2019-03-30T10:22:13.733Z,60.95
2019-03-30T10:23:12.595Z,60.11
2019-03-30T10:24:12.600Z,57.58
2019-03-30T10:25:12.552Z,58.72
2019-03-30T10:26:12.610Z,57.50
2019-03-30T10:27:12.527Z,58.72
2019-03-30T10:28:12.611Z,58.11
2019-03-30T10:29:12.510Z,59.10
2019-03-30T10:30:12.618Z,59.63
2019-03-30T10:31:12.534Z,60.35
2019-03-30T10:32:13.470Z,62.65
2019-03-30T10:33:12.503Z,60.52
2019-03-30T10:34:12.581Z,60.42
2019-03-30T10:35:12.427Z,61.60
2019-03-30T10:36:12.581Z,60.49
2019-03-30T10:37:12.442Z,58.76
2019-03-30T10:38:12.695Z,58.34
2019-03-30T10:39:12.405Z,55.10
2019-03-30T10:40:12.502Z,55.70
2019-03-30T10:41:12.364Z,55.32
2019-03-30T10:42:12.537Z,54.82
2019-03-30T10:43:12.590Z,54.99
2019-03-30T10:44:12.344Z,56.03
2019-03-30T10:45:12.539Z,57.15
2019-03-30T10:46:12.339Z,57.15
2019-03-30T10:47:12.457Z,57.35
2019-03-30T10:48:12.329Z,58.34
2019-03-30T10:49:12.295Z,59.25
2019-03-30T10:50:12.271Z,58.64
2019-03-30T10:51:12.473Z,54.59
2019-03-30T10:52:12.307Z,55.30
2019-03-30T10:53:12.453Z,56.38
2019-03-30T10:54:12.224Z,56.59
2019-03-30T10:55:12.244Z,56.99
2019-03-30T10:56:12.222Z,55.17
2019-03-30T10:57:12.445Z,55.37
2019-03-30T10:58:12.238Z,56.38
2019-03-30T10:59:12.469Z,54.46
2019-03-30T11:00:12.183Z,54.36
2019-03-30T11:01:12.186Z,53.78
2019-03-30T11:02:12.157Z,54.49
2019-03-30T11:03:12.302Z,54.38
2019-03-30T11:04:12.132Z,53.55
2019-03-30T11:05:13.301Z,54.08
2019-03-30T11:06:12.116Z,54.97
2019-03-30T11:07:12.134Z,54.66
2019-03-30T11:08:12.144Z,54.26
2019-03-30T11:09:12.186Z,54.03
2019-03-30T11:10:12.111Z,54.13
2019-03-30T11:11:12.247Z,54.64
2019-03-30T11:12:12.040Z,56.26
2019-03-30T11:13:12.081Z,54.23
2019-03-30T11:14:12.044Z,54.23
2019-03-30T11:15:13.209Z,53.09
2019-03-30T11:16:12.090Z,53.70
2019-03-30T11:17:12.133Z,53.27
2019-03-30T11:18:12.134Z,51.89
2019-03-30T11:19:11.992Z,51.03
2019-03-30T11:20:11.965Z,49.65
2019-03-30T11:21:12.070Z,49.27
2019-03-30T11:22:11.951Z,46.92
2019-03-30T11:23:12.174Z,46.87
2019-03-30T11:24:11.912Z,44.72
2019-03-30T11:25:11.923Z,43.68
2019-03-30T11:26:12.005Z,41.17
2019-03-30T11:27:12.142Z,41.47
2019-03-30T11:28:11.884Z,40.69
2019-03-30T11:29:12.619Z,41.88
2019-03-30T11:30:11.893Z,40.59
2019-03-30T11:31:11.893Z,41.79
2019-03-30T11:32:12.057Z,40.59
2019-03-30T11:33:12.040Z,39.99
2019-03-30T11:34:11.830Z,39.69
2019-03-30T11:35:11.956Z,38.65
2019-03-30T11:36:11.775Z,36.35
2019-03-30T11:37:11.865Z,37.85
2019-03-30T11:38:11.852Z,39.53
2019-03-30T11:39:12.046Z,37.41
2019-03-30T11:40:11.768Z,35.99
2019-03-30T11:41:11.913Z,35.86
2019-03-30T11:42:11.762Z,37.19
2019-03-30T11:43:11.827Z,36.99
2019-03-30T11:44:11.699Z,36.29
2019-03-30T11:45:11.919Z,36.03
2019-03-30T11:46:11.704Z,37.27
2019-03-30T11:47:11.917Z,39.12
2019-03-30T11:48:11.669Z,39.40
2019-03-30T11:49:11.676Z,40.64
2019-03-30T11:50:11.666Z,41.41
2019-03-30T11:51:11.755Z,41.77
2019-03-30T11:52:11.659Z,41.69
2019-03-30T11:53:12.794Z,41.79
2019-03-30T11:54:11.657Z,42.82
2019-03-30T11:55:21.609Z,43.65
2019-03-30T11:56:12.765Z,43.37
2019-03-30T11:57:11.665Z,43.66
2019-03-30T11:58:11.734Z,43.38
2019-03-30T11:59:11.541Z,42.30
2019-03-30T12:00:11.713Z,37.90
2019-03-30T12:01:11.602Z,37.37
2019-03-30T12:02:12.237Z,36.65
2019-03-30T12:03:11.500Z,35.33
2019-03-30T12:04:11.580Z,35.41
2019-03-30T12:05:11.502Z,34.71
2019-03-30T12:06:18.358Z,34.61
2019-03-30T12:07:11.527Z,35.21
2019-03-30T12:08:11.469Z,34.41
2019-03-30T12:09:11.438Z,36.36
2019-03-30T12:10:11.508Z,37.42
2019-03-30T12:11:11.408Z,37.42
2019-03-30T12:12:11.585Z,38.47
2019-03-30T12:13:11.431Z,36.03
2019-03-30T12:14:11.432Z,34.88
2019-03-30T12:15:11.389Z,31.96
2019-03-30T12:16:11.455Z,34.44
2019-03-30T12:17:11.378Z,33.13
2019-03-30T12:18:11.392Z,32.75
2019-03-30T12:19:11.351Z,31.57
2019-03-30T12:20:11.385Z,32.68
2019-03-30T12:21:11.463Z,32.36
2019-03-30T12:22:11.440Z,32.51
2019-03-30T12:23:11.332Z,33.34
2019-03-30T12:24:11.340Z,34.55
2019-03-30T12:25:11.278Z,33.43
2019-03-30T12:26:11.343Z,33.61
2019-03-30T12:27:11.279Z,34.05
2019-03-30T12:28:11.463Z,35.26
2019-03-30T12:29:11.241Z,34.44
2019-03-30T12:30:11.255Z,35.85
2019-03-30T12:31:11.208Z,35.61
2019-03-30T12:32:11.317Z,38.06
2019-03-30T12:33:11.196Z,37.39
2019-03-30T12:34:13.221Z,39.98
2019-03-30T12:35:11.215Z,37.72
2019-03-30T12:36:11.190Z,37.27
2019-03-30T12:37:11.181Z,34.71
2019-03-30T12:38:11.196Z,34.69
2019-03-30T12:39:11.120Z,35.39
2019-03-30T12:40:13.195Z,35.03
2019-03-30T12:41:11.099Z,35.56
2019-03-30T12:42:11.186Z,37.40
2019-03-30T12:43:11.299Z,38.42
2019-03-30T12:44:11.078Z,36.46
2019-03-30T12:45:12.183Z,36.11
2019-03-30T12:46:11.061Z,34.06
2019-03-30T12:47:12.176Z,32.73
2019-03-30T12:48:11.055Z,35.61
2019-03-30T12:49:11.077Z,32.12
2019-03-30T12:50:11.048Z,31.87
2019-03-30T12:51:12.187Z,33.29
2019-03-30T12:52:11.240Z,36.61